sensor_id;sensor_type;location;lat;lon;timestamp;pressure;altitude;pressure_sealevel;temperature;humidity
69171;BME280;56279;47.902;12.308;2023-03-19T00:01:39;95017.97;;;7.91;79.64
69171;BME280;56279;47.902;12.308;2023-03-19T00:03:40;95025.34;;;7.89;80.00
69171;BME280;56279;47.902;12.308;2023-03-19T00:05:50;95021.16;;;7.83;79.90
69171;BME280;56279;47.902;12.308;2023-03-19T00:07:52;95025.38;;;7.79;80.43
69171;BME280;56279;47.902;12.308;2023-03-19T00:09:53;95028.00;;;7.74;80.60
69171;BME280;56279;47.902;12.308;2023-03-19T00:11:54;95035.09;;;7.68;80.28
69171;BME280;56279;47.902;12.308;2023-03-19T00:13:56;95031.44;;;7.64;80.29
69171;BME280;56279;47.902;12.308;2023-03-19T00:15:57;95029.63;;;7.60;80.79
69171;BME280;56279;47.902;12.308;2023-03-19T00:20:27;95032.25;;;7.50;80.51
69171;BME280;56279;47.902;12.308;2023-03-19T00:22:28;95043.53;;;7.45;80.73
69171;BME280;56279;47.902;12.308;2023-03-19T00:24:29;95045.38;;;7.40;81.01
69171;BME280;56279;47.902;12.308;2023-03-19T00:26:32;95043.81;;;7.34;81.52
69171;BME280;56279;47.902;12.308;2023-03-19T00:28:34;95048.81;;;7.30;81.18
69171;BME280;56279;47.902;12.308;2023-03-19T00:30:37;95038.53;;;7.24;81.93
69171;BME280;56279;47.902;12.308;2023-03-19T00:32:38;95042.47;;;7.21;81.59
69171;BME280;56279;47.902;12.308;2023-03-19T00:34:40;95044.06;;;7.17;81.37
69171;BME280;56279;47.902;12.308;2023-03-19T00:36:41;95041.72;;;7.16;81.93
69171;BME280;56279;47.902;12.308;2023-03-19T00:38:44;95044.84;;;7.13;82.08
69171;BME280;56279;47.902;12.308;2023-03-19T00:40:46;95046.44;;;7.09;81.88
69171;BME280;56279;47.902;12.308;2023-03-19T00:42:48;95042.47;;;7.06;82.01
69171;BME280;56279;47.902;12.308;2023-03-19T00:44:50;95031.47;;;7.04;82.13
69171;BME280;56279;47.902;12.308;2023-03-19T00:46:52;95026.47;;;7.03;82.09
69171;BME280;56279;47.902;12.308;2023-03-19T00:48:53;95028.56;;;7.01;82.26
69171;BME280;56279;47.902;12.308;2023-03-19T00:51:01;95031.47;;;6.99;82.35
69171;BME280;56279;47.902;12.308;2023-03-19T00:53:03;95031.19;;;7.01;82.41
69171;BME280;56279;47.902;12.308;2023-03-19T00:55:04;95027.25;;;7.03;82.55
69171;BME280;56279;47.902;12.308;2023-03-19T00:57:06;95024.38;;;7.05;82.74
69171;BME280;56279;47.902;12.308;2023-03-19T00:59:07;95035.13;;;7.08;82.17
69171;BME280;56279;47.902;12.308;2023-03-19T01:01:10;95035.41;;;7.07;82.40
69171;BME280;56279;47.902;12.308;2023-03-19T01:03:12;95038.53;;;7.04;82.09
69171;BME280;56279;47.902;12.308;2023-03-19T01:05:15;95044.56;;;6.99;82.53
69171;BME280;56279;47.902;12.308;2023-03-19T01:07:16;95045.34;;;6.94;82.83
69171;BME280;56279;47.902;12.308;2023-03-19T01:09:18;95054.81;;;6.90;82.57
69171;BME280;56279;47.902;12.308;2023-03-19T01:11:19;95051.38;;;6.85;83.10
69171;BME280;56279;47.902;12.308;2023-03-19T01:13:20;95057.13;;;6.82;83.41
69171;BME280;56279;47.902;12.308;2023-03-19T01:15:21;95061.06;;;6.79;83.13
69171;BME280;56279;47.902;12.308;2023-03-19T01:17:23;95062.34;;;6.77;83.49
69171;BME280;56279;47.902;12.308;2023-03-19T01:19:24;95061.06;;;6.74;83.28
69171;BME280;56279;47.902;12.308;2023-03-19T01:21:27;95059.97;;;6.70;83.63
69171;BME280;56279;47.902;12.308;2023-03-19T01:23:31;95060.53;;;6.67;83.69
69171;BME280;56279;47.902;12.308;2023-03-19T01:25:33;95071.53;;;6.64;83.39
69171;BME280;56279;47.902;12.308;2023-03-19T01:27:39;95077.00;;;6.58;83.61
69171;BME280;56279;47.902;12.308;2023-03-19T01:29:41;95083.03;;;6.53;83.14
69171;BME280;56279;47.902;12.308;2023-03-19T01:31:51;95085.34;;;6.45;83.84
69171;BME280;56279;47.902;12.308;2023-03-19T01:34:11;95087.66;;;6.36;83.66
69171;BME280;56279;47.902;12.308;2023-03-19T01:36:21;95089.47;;;6.31;84.06
69171;BME280;56279;47.902;12.308;2023-03-19T01:38:35;95093.13;;;6.24;83.97
69171;BME280;56279;47.902;12.308;2023-03-19T01:40:44;95089.44;;;6.20;84.32
69171;BME280;56279;47.902;12.308;2023-03-19T01:48:05;95084.97;;;6.16;84.23
69171;BME280;56279;47.902;12.308;2023-03-19T01:50:37;95079.97;;;6.14;84.39
69171;BME280;56279;47.902;12.308;2023-03-19T01:52:56;95081.03;;;6.13;84.44
69171;BME280;56279;47.902;12.308;2023-03-19T01:55:07;95071.84;;;6.11;84.41
69171;BME280;56279;47.902;12.308;2023-03-19T01:57:41;95075.47;;;6.10;84.42
69171;BME280;56279;47.902;12.308;2023-03-19T02:00:06;95064.22;;;6.09;84.52
69171;BME280;56279;47.902;12.308;2023-03-19T02:02:24;95074.72;;;6.14;84.74
69171;BME280;56279;47.902;12.308;2023-03-19T02:04:30;95077.38;;;6.19;84.78
69171;BME280;56279;47.902;12.308;2023-03-19T02:06:31;95072.16;;;6.24;84.59
69171;BME280;56279;47.902;12.308;2023-03-19T02:08:34;95068.50;;;6.31;84.54
69171;BME280;56279;47.902;12.308;2023-03-19T02:10:38;95070.34;;;6.35;84.72
69171;BME280;56279;47.902;12.308;2023-03-19T02:12:41;95073.25;;;6.39;84.48
69171;BME280;56279;47.902;12.308;2023-03-19T02:14:42;95064.91;;;6.42;84.58
69171;BME280;56279;47.902;12.308;2023-03-19T02:16:44;95065.16;;;6.45;84.33
69171;BME280;56279;47.902;12.308;2023-03-19T02:18:49;95067.78;;;6.45;84.19
69171;BME280;56279;47.902;12.308;2023-03-19T02:21:02;95060.94;;;6.44;84.61
69171;BME280;56279;47.902;12.308;2023-03-19T02:23:25;95057.03;;;6.42;84.04
69171;BME280;56279;47.902;12.308;2023-03-19T02:25:40;95061.75;;;6.45;84.32
69171;BME280;56279;47.902;12.308;2023-03-19T02:27:46;95057.28;;;6.45;83.98
69171;BME280;56279;47.902;12.308;2023-03-19T02:29:48;95063.84;;;6.48;84.24
69171;BME280;56279;47.902;12.308;2023-03-19T02:31:50;95057.81;;;6.47;84.54
69171;BME280;56279;47.902;12.308;2023-03-19T02:36:41;95066.97;;;6.45;84.34
69171;BME280;56279;47.902;12.308;2023-03-19T02:38:45;95074.06;;;6.44;84.40
69171;BME280;56279;47.902;12.308;2023-03-19T02:40:54;95068.28;;;6.42;84.35
69171;BME280;56279;47.902;12.308;2023-03-19T02:42:59;95074.31;;;6.43;84.58
69171;BME280;56279;47.902;12.308;2023-03-19T02:45:01;95073.53;;;6.42;84.61
69171;BME280;56279;47.902;12.308;2023-03-19T02:47:03;95073.78;;;6.41;84.63
69171;BME280;56279;47.902;12.308;2023-03-19T02:49:05;95071.16;;;6.41;84.26
69171;BME280;56279;47.902;12.308;2023-03-19T02:51:06;95071.69;;;6.38;84.30
69171;BME280;56279;47.902;12.308;2023-03-19T02:53:08;95070.63;;;6.34;84.50
69171;BME280;56279;47.902;12.308;2023-03-19T02:55:09;95071.91;;;6.31;84.45
69171;BME280;56279;47.902;12.308;2023-03-19T02:57:11;95063.53;;;6.29;84.60
69171;BME280;56279;47.902;12.308;2023-03-19T02:59:13;95074.00;;;6.29;84.79
69171;BME280;56279;47.902;12.308;2023-03-19T03:01:14;95078.75;;;6.32;84.64
69171;BME280;56279;47.902;12.308;2023-03-19T03:03:16;95078.22;;;6.35;84.93
69171;BME280;56279;47.902;12.308;2023-03-19T03:05:17;95076.41;;;6.41;84.70
69171;BME280;56279;47.902;12.308;2023-03-19T03:07:19;95082.47;;;6.46;84.87
69171;BME280;56279;47.902;12.308;2023-03-19T03:09:20;95086.41;;;6.49;84.87
69171;BME280;56279;47.902;12.308;2023-03-19T03:11:22;95092.19;;;6.51;84.42
69171;BME280;56279;47.902;12.308;2023-03-19T03:13:24;95093.75;;;6.52;84.52
69171;BME280;56279;47.902;12.308;2023-03-19T03:15:25;95104.22;;;6.52;84.34
69171;BME280;56279;47.902;12.308;2023-03-19T03:17:26;95104.00;;;6.53;84.68
69171;BME280;56279;47.902;12.308;2023-03-19T03:19:28;95100.56;;;6.53;84.62
69171;BME280;56279;47.902;12.308;2023-03-19T03:21:29;95108.19;;;6.54;84.89
69171;BME280;56279;47.902;12.308;2023-03-19T03:23:31;95100.84;;;6.56;84.38
69171;BME280;56279;47.902;12.308;2023-03-19T03:25:34;95104.00;;;6.58;84.67
69171;BME280;56279;47.902;12.308;2023-03-19T03:27:37;95102.44;;;6.57;84.26
69171;BME280;56279;47.902;12.308;2023-03-19T03:29:38;95094.56;;;6.57;84.27
69171;BME280;56279;47.902;12.308;2023-03-19T03:31:41;95102.94;;;6.54;84.35
69171;BME280;56279;47.902;12.308;2023-03-19T03:33:42;95109.47;;;6.52;84.63
69171;BME280;56279;47.902;12.308;2023-03-19T03:35:44;95114.97;;;6.50;84.65
69171;BME280;56279;47.902;12.308;2023-03-19T03:37:47;95110.78;;;6.49;84.65
69171;BME280;56279;47.902;12.308;2023-03-19T03:39:49;95117.59;;;6.50;84.61
69171;BME280;56279;47.902;12.308;2023-03-19T03:41:52;95109.75;;;6.50;84.79
69171;BME280;56279;47.902;12.308;2023-03-19T03:43:54;95115.78;;;6.51;84.74
69171;BME280;56279;47.902;12.308;2023-03-19T03:45:56;95108.16;;;6.49;84.38
69171;BME280;56279;47.902;12.308;2023-03-19T03:47:57;95113.66;;;6.48;84.41
69171;BME280;56279;47.902;12.308;2023-03-19T03:49:59;95114.97;;;6.45;84.26
69171;BME280;56279;47.902;12.308;2023-03-19T03:52:00;95112.84;;;6.42;84.58
69171;BME280;56279;47.902;12.308;2023-03-19T03:54:01;95120.97;;;6.41;84.71
69171;BME280;56279;47.902;12.308;2023-03-19T03:56:03;95120.44;;;6.39;84.63
69171;BME280;56279;47.902;12.308;2023-03-19T03:58:05;95117.28;;;6.37;84.77
69171;BME280;56279;47.902;12.308;2023-03-19T04:00:08;95112.81;;;6.37;84.64
69171;BME280;56279;47.902;12.308;2023-03-19T04:02:19;95105.47;;;6.34;84.56
69171;BME280;56279;47.902;12.308;2023-03-19T04:04:23;95107.31;;;6.34;84.58
69171;BME280;56279;47.902;12.308;2023-03-19T04:06:26;95110.97;;;6.33;84.64
69171;BME280;56279;47.902;12.308;2023-03-19T04:08:47;95114.63;;;6.32;84.72
69171;BME280;56279;47.902;12.308;2023-03-19T04:10:48;95120.66;;;6.32;84.90
69171;BME280;56279;47.902;12.308;2023-03-19T04:12:50;95120.66;;;6.32;84.73
69171;BME280;56279;47.902;12.308;2023-03-19T04:15:09;95129.06;;;6.34;84.69
69171;BME280;56279;47.902;12.308;2023-03-19T04:17:13;95117.53;;;6.35;84.65
69171;BME280;56279;47.902;12.308;2023-03-19T04:19:34;95125.38;;;6.35;84.57
69171;BME280;56279;47.902;12.308;2023-03-19T04:21:36;95126.47;;;6.39;84.75
69171;BME280;56279;47.902;12.308;2023-03-19T04:23:37;95134.88;;;6.41;85.11
69171;BME280;56279;47.902;12.308;2023-03-19T04:25:39;95130.94;;;6.44;85.28
69171;BME280;56279;47.902;12.308;2023-03-19T04:27:57;95131.72;;;6.44;84.83
69171;BME280;56279;47.902;12.308;2023-03-19T04:30:02;95128.88;;;6.51;85.03
69171;BME280;56279;47.902;12.308;2023-03-19T04:32:04;95130.75;;;6.55;84.95
69171;BME280;56279;47.902;12.308;2023-03-19T04:34:06;95132.06;;;6.58;84.93
69171;BME280;56279;47.902;12.308;2023-03-19T04:36:07;95142.00;;;6.61;84.82
69171;BME280;56279;47.902;12.308;2023-03-19T04:38:10;95138.88;;;6.64;85.02
69171;BME280;56279;47.902;12.308;2023-03-19T04:40:12;95138.38;;;6.67;84.39
69171;BME280;56279;47.902;12.308;2023-03-19T04:42:15;95131.06;;;6.69;84.46
69171;BME280;56279;47.902;12.308;2023-03-19T04:44:29;95135.78;;;6.72;84.58
69171;BME280;56279;47.902;12.308;2023-03-19T04:46:33;95127.91;;;6.72;84.35
69171;BME280;56279;47.902;12.308;2023-03-19T04:48:34;95135.53;;;6.73;84.23
69171;BME280;56279;47.902;12.308;2023-03-19T04:50:36;95138.16;;;6.78;84.31
69171;BME280;56279;47.902;12.308;2023-03-19T04:52:38;95139.22;;;6.82;84.66
69171;BME280;56279;47.902;12.308;2023-03-19T04:54:39;95142.13;;;6.81;84.38
69171;BME280;56279;47.902;12.308;2023-03-19T04:56:42;95147.09;;;6.82;84.47
69171;BME280;56279;47.902;12.308;2023-03-19T04:58:49;95142.91;;;6.86;84.29
69171;BME280;56279;47.902;12.308;2023-03-19T05:00:51;95140.28;;;6.91;84.26
69171;BME280;56279;47.902;12.308;2023-03-19T05:02:59;95144.53;;;6.97;84.15
69171;BME280;56279;47.902;12.308;2023-03-19T05:05:02;95144.25;;;6.99;83.53
69171;BME280;56279;47.902;12.308;2023-03-19T05:07:04;95144.78;;;7.01;83.38
69171;BME280;56279;47.902;12.308;2023-03-19T05:09:06;95151.88;;;7.06;83.48
69171;BME280;56279;47.902;12.308;2023-03-19T05:11:08;95146.38;;;7.07;83.37
69171;BME280;56279;47.902;12.308;2023-03-19T05:13:23;95148.22;;;7.07;83.42
69171;BME280;56279;47.902;12.308;2023-03-19T05:15:27;95146.13;;;7.09;83.14
69171;BME280;56279;47.902;12.308;2023-03-19T05:17:40;95159.78;;;7.11;83.54
69171;BME280;56279;47.902;12.308;2023-03-19T05:19:55;95162.91;;;7.13;83.07
69171;BME280;56279;47.902;12.308;2023-03-19T05:21:57;95160.81;;;7.15;83.08
69171;BME280;56279;47.902;12.308;2023-03-19T05:24:00;95166.34;;;7.18;83.28
69171;BME280;56279;47.902;12.308;2023-03-19T05:26:05;95166.34;;;7.18;83.12
69171;BME280;56279;47.902;12.308;2023-03-19T05:28:26;95167.66;;;7.16;82.70
69171;BME280;56279;47.902;12.308;2023-03-19T05:30:27;95169.75;;;7.14;82.74
69171;BME280;56279;47.902;12.308;2023-03-19T05:32:47;95171.59;;;7.13;83.39
69171;BME280;56279;47.902;12.308;2023-03-19T05:35:05;95168.16;;;7.13;83.36
69171;BME280;56279;47.902;12.308;2023-03-19T05:37:10;95180.50;;;7.12;82.98
69171;BME280;56279;47.902;12.308;2023-03-19T05:39:13;95181.81;;;7.15;82.86
69171;BME280;56279;47.902;12.308;2023-03-19T05:41:18;95182.91;;;7.19;82.89
69171;BME280;56279;47.902;12.308;2023-03-19T05:43:40;95192.06;;;7.21;82.66
69171;BME280;56279;47.902;12.308;2023-03-19T05:45:49;95189.22;;;7.28;82.73
69171;BME280;56279;47.902;12.308;2023-03-19T05:47:57;95195.25;;;7.33;82.69
69171;BME280;56279;47.902;12.308;2023-03-19T05:49:59;95193.16;;;7.40;82.14
69171;BME280;56279;47.902;12.308;2023-03-19T05:52:01;95188.22;;;7.49;82.28
69171;BME280;56279;47.902;12.308;2023-03-19T05:54:04;95191.09;;;7.57;82.01
69171;BME280;56279;47.902;12.308;2023-03-19T05:56:10;95198.72;;;7.64;81.83
69171;BME280;56279;47.902;12.308;2023-03-19T05:58:24;95204.78;;;7.70;81.74
69171;BME280;56279;47.902;12.308;2023-03-19T06:00:26;95211.09;;;7.79;81.09
69171;BME280;56279;47.902;12.308;2023-03-19T06:02:27;95209.00;;;7.86;80.88
69171;BME280;56279;47.902;12.308;2023-03-19T06:04:43;95215.03;;;7.91;80.90
69171;BME280;56279;47.902;12.308;2023-03-19T06:06:44;95208.22;;;7.95;80.44
69171;BME280;56279;47.902;12.308;2023-03-19T06:08:46;95213.47;;;8.00;80.45
69171;BME280;56279;47.902;12.308;2023-03-19T06:11:17;95215.31;;;8.05;80.00
69171;BME280;56279;47.902;12.308;2023-03-19T06:13:24;95217.16;;;8.09;79.95
69171;BME280;56279;47.902;12.308;2023-03-19T06:15:55;95229.22;;;8.15;80.22
69171;BME280;56279;47.902;12.308;2023-03-19T06:18:19;95235.31;;;8.26;79.55
69171;BME280;56279;47.902;12.308;2023-03-19T06:20:21;95237.91;;;8.41;79.15
69171;BME280;56279;47.902;12.308;2023-03-19T06:22:23;95247.88;;;8.54;78.96
69171;BME280;56279;47.902;12.308;2023-03-19T06:24:25;95244.47;;;8.59;78.21
69171;BME280;56279;47.902;12.308;2023-03-19T06:26:27;95247.63;;;8.56;78.37
69171;BME280;56279;47.902;12.308;2023-03-19T06:28:31;95253.41;;;8.53;78.60
69171;BME280;56279;47.902;12.308;2023-03-19T06:30:33;95255.53;;;8.51;78.65
69171;BME280;56279;47.902;12.308;2023-03-19T06:32:37;95253.41;;;8.53;78.59
69171;BME280;56279;47.902;12.308;2023-03-19T06:34:43;95257.06;;;8.62;78.09
69171;BME280;56279;47.902;12.308;2023-03-19T06:36:45;95255.50;;;8.66;78.06
69171;BME280;56279;47.902;12.308;2023-03-19T06:38:49;95260.22;;;8.69;77.50
69171;BME280;56279;47.902;12.308;2023-03-19T06:40:50;95261.53;;;8.71;77.76
69171;BME280;56279;47.902;12.308;2023-03-19T06:42:51;95269.19;;;8.68;77.23
69171;BME280;56279;47.902;12.308;2023-03-19T06:44:54;95271.03;;;8.62;77.75
69171;BME280;56279;47.902;12.308;2023-03-19T06:46:56;95264.97;;;8.57;77.91
69171;BME280;56279;47.902;12.308;2023-03-19T06:48:58;95261.31;;;8.48;77.82
69171;BME280;56279;47.902;12.308;2023-03-19T06:50:59;95256.59;;;8.40;77.85
69171;BME280;56279;47.902;12.308;2023-03-19T06:53:01;95271.28;;;8.35;78.06
69171;BME280;56279;47.902;12.308;2023-03-19T06:55:03;95267.38;;;8.33;78.43
69171;BME280;56279;47.902;12.308;2023-03-19T06:57:05;95272.63;;;8.33;78.07
69171;BME280;56279;47.902;12.308;2023-03-19T06:59:07;95285.50;;;8.34;77.95
69171;BME280;56279;47.902;12.308;2023-03-19T07:01:08;95287.88;;;8.36;77.96
69171;BME280;56279;47.902;12.308;2023-03-19T07:03:10;95286.31;;;8.40;78.24
69171;BME280;56279;47.902;12.308;2023-03-19T07:05:13;95290.78;;;8.45;77.62
69171;BME280;56279;47.902;12.308;2023-03-19T07:07:14;95288.66;;;8.47;77.69
69171;BME280;56279;47.902;12.308;2023-03-19T07:09:16;95296.81;;;8.50;77.19
69171;BME280;56279;47.902;12.308;2023-03-19T07:11:18;95311.28;;;8.58;76.99
69171;BME280;56279;47.902;12.308;2023-03-19T07:13:19;95310.22;;;8.64;76.88
69171;BME280;56279;47.902;12.308;2023-03-19T07:15:21;95307.84;;;8.72;76.35
69171;BME280;56279;47.902;12.308;2023-03-19T07:17:25;95306.50;;;8.80;76.44
69171;BME280;56279;47.902;12.308;2023-03-19T07:19:26;95305.19;;;8.87;76.06
69171;BME280;56279;47.902;12.308;2023-03-19T07:21:28;95312.28;;;8.97;75.54
69171;BME280;56279;47.902;12.308;2023-03-19T07:23:29;95311.97;;;9.09;75.50
69171;BME280;56279;47.902;12.308;2023-03-19T07:25:30;95326.44;;;9.21;75.00
69171;BME280;56279;47.902;12.308;2023-03-19T07:27:32;95321.13;;;9.31;74.81
69171;BME280;56279;47.902;12.308;2023-03-19T07:29:34;95325.31;;;9.42;74.82
69171;BME280;56279;47.902;12.308;2023-03-19T07:31:35;95336.38;;;9.49;74.16
69171;BME280;56279;47.902;12.308;2023-03-19T07:33:37;95341.06;;;9.57;73.91
69171;BME280;56279;47.902;12.308;2023-03-19T07:35:38;95340.22;;;9.67;74.27
69171;BME280;56279;47.902;12.308;2023-03-19T07:37:40;95345.22;;;9.73;73.50
69171;BME280;56279;47.902;12.308;2023-03-19T07:39:42;95341.50;;;9.80;73.50
69171;BME280;56279;47.902;12.308;2023-03-19T07:41:44;95339.38;;;9.87;73.38
69171;BME280;56279;47.902;12.308;2023-03-19T07:43:49;95351.16;;;9.94;73.56
69171;BME280;56279;47.902;12.308;2023-03-19T07:45:50;95347.47;;;10.00;72.99
69171;BME280;56279;47.902;12.308;2023-03-19T07:47:51;95348.19;;;10.11;72.82
69171;BME280;56279;47.902;12.308;2023-03-19T07:49:53;95346.84;;;10.18;72.44
69171;BME280;56279;47.902;12.308;2023-03-19T07:51:54;95349.19;;;10.25;72.23
69171;BME280;56279;47.902;12.308;2023-03-19T07:53:56;95356.00;;;10.31;72.08
69171;BME280;56279;47.902;12.308;2023-03-19T07:55:58;95361.78;;;10.38;72.18
69171;BME280;56279;47.902;12.308;2023-03-19T07:57:59;95354.06;;;10.47;71.84
69171;BME280;56279;47.902;12.308;2023-03-19T08:00:00;95348.97;;;10.55;71.58
69171;BME280;56279;47.902;12.308;2023-03-19T08:02:01;95357.63;;;10.66;71.22
69171;BME280;56279;47.902;12.308;2023-03-19T08:04:03;95356.16;;;10.78;70.79
69171;BME280;56279;47.902;12.308;2023-03-19T08:06:04;95356.91;;;10.89;70.46
69171;BME280;56279;47.902;12.308;2023-03-19T08:08:05;95353.88;;;11.00;70.30
69171;BME280;56279;47.902;12.308;2023-03-19T08:10:07;95356.44;;;11.10;69.96
69171;BME280;56279;47.902;12.308;2023-03-19T08:12:09;95348.69;;;11.19;69.77
69171;BME280;56279;47.902;12.308;2023-03-19T08:14:10;95354.09;;;11.33;69.65
69171;BME280;56279;47.902;12.308;2023-03-19T08:16:12;95351.34;;;11.43;69.13
69171;BME280;56279;47.902;12.308;2023-03-19T08:18:13;95362.03;;;11.56;68.85
69171;BME280;56279;47.902;12.308;2023-03-19T08:20:15;95355.31;;;11.69;68.87
69171;BME280;56279;47.902;12.308;2023-03-19T08:22:16;95365.75;;;11.79;68.21
69171;BME280;56279;47.902;12.308;2023-03-19T08:24:18;95363.84;;;11.85;67.77
69171;BME280;56279;47.902;12.308;2023-03-19T08:26:19;95368.59;;;11.88;67.82
69171;BME280;56279;47.902;12.308;2023-03-19T08:28:21;95375.56;;;11.97;67.97
69171;BME280;56279;47.902;12.308;2023-03-19T08:30:22;95365.16;;;12.06;67.51
69171;BME280;56279;47.902;12.308;2023-03-19T08:32:24;95383.63;;;12.11;67.20
69171;BME280;56279;47.902;12.308;2023-03-19T08:34:26;95377.25;;;12.12;67.16
69171;BME280;56279;47.902;12.308;2023-03-19T08:36:28;95373.19;;;12.19;67.10
69171;BME280;56279;47.902;12.308;2023-03-19T08:38:29;95379.97;;;12.25;66.66
69171;BME280;56279;47.902;12.308;2023-03-19T08:40:30;95381.19;;;12.33;66.66
69171;BME280;56279;47.902;12.308;2023-03-19T08:42:32;95391.72;;;12.38;66.60
69171;BME280;56279;47.902;12.308;2023-03-19T08:44:34;95385.81;;;12.46;66.65
69171;BME280;56279;47.902;12.308;2023-03-19T08:46:35;95384.84;;;12.56;66.29
69171;BME280;56279;47.902;12.308;2023-03-19T08:48:37;95386.44;;;12.57;65.62
69171;BME280;56279;47.902;12.308;2023-03-19T08:50:38;95391.22;;;12.55;65.85
69171;BME280;56279;47.902;12.308;2023-03-19T08:52:39;95392.50;;;12.57;66.31
69171;BME280;56279;47.902;12.308;2023-03-19T08:54:41;95395.84;;;12.63;66.00
69171;BME280;56279;47.902;12.308;2023-03-19T08:56:42;95395.38;;;12.61;65.94
69171;BME280;56279;47.902;12.308;2023-03-19T08:58:43;95401.03;;;12.54;65.80
69171;BME280;56279;47.902;12.308;2023-03-19T09:00:47;95402.19;;;12.48;65.85
69171;BME280;56279;47.902;12.308;2023-03-19T09:02:49;95406.38;;;12.49;65.98
69171;BME280;56279;47.902;12.308;2023-03-19T09:04:50;95395.44;;;12.56;65.84
69171;BME280;56279;47.902;12.308;2023-03-19T09:06:51;95400.59;;;12.66;65.49
69171;BME280;56279;47.902;12.308;2023-03-19T09:08:53;95412.09;;;12.75;65.09
69171;BME280;56279;47.902;12.308;2023-03-19T09:10:54;95408.81;;;12.83;64.69
69171;BME280;56279;47.902;12.308;2023-03-19T09:12:56;95406.66;;;12.85;64.70
69171;BME280;56279;47.902;12.308;2023-03-19T09:14:57;95410.91;;;12.86;64.42
69171;BME280;56279;47.902;12.308;2023-03-19T09:16:58;95418.31;;;12.84;64.48
69171;BME280;56279;47.902;12.308;2023-03-19T09:19:02;95414.31;;;12.86;64.73
69171;BME280;56279;47.902;12.308;2023-03-19T09:21:03;95411.50;;;12.96;64.37
69171;BME280;56279;47.902;12.308;2023-03-19T09:23:04;95408.75;;;13.06;64.16
69171;BME280;56279;47.902;12.308;2023-03-19T09:25:06;95414.47;;;13.13;64.09
69171;BME280;56279;47.902;12.308;2023-03-19T09:27:07;95414.00;;;13.25;63.84
69171;BME280;56279;47.902;12.308;2023-03-19T09:29:09;95428.84;;;13.40;63.58
69171;BME280;56279;47.902;12.308;2023-03-19T09:31:10;95428.97;;;13.48;62.87
69171;BME280;56279;47.902;12.308;2023-03-19T09:33:13;95426.50;;;13.52;62.63
69171;BME280;56279;47.902;12.308;2023-03-19T09:35:14;95426.81;;;13.50;62.42
69171;BME280;56279;47.902;12.308;2023-03-19T09:37:15;95429.66;;;13.54;62.46
69171;BME280;56279;47.902;12.308;2023-03-19T09:39:17;95423.78;;;13.57;61.99
69171;BME280;56279;47.902;12.308;2023-03-19T09:45:51;95431.47;;;13.40;62.12
69171;BME280;56279;47.902;12.308;2023-03-19T09:48:06;95435.13;;;13.30;62.40
69171;BME280;56279;47.902;12.308;2023-03-19T09:50:15;95427.59;;;13.18;62.20
69171;BME280;56279;47.902;12.308;2023-03-19T09:52:30;95434.28;;;13.16;62.44
69171;BME280;56279;47.902;12.308;2023-03-19T09:54:38;95432.25;;;13.27;62.58
69171;BME280;56279;47.902;12.308;2023-03-19T09:56:43;95441.31;;;13.39;62.50
69171;BME280;56279;47.902;12.308;2023-03-19T09:58:45;95426.91;;;13.45;62.16
69171;BME280;56279;47.902;12.308;2023-03-19T10:00:52;95437.53;;;13.59;62.05
69171;BME280;56279;47.902;12.308;2023-03-19T10:03:25;95429.97;;;13.66;61.07
69171;BME280;56279;47.902;12.308;2023-03-19T10:10:35;95422.13;;;13.74;61.71
69171;BME280;56279;47.902;12.308;2023-03-19T10:15:18;95413.66;;;13.72;61.64
69171;BME280;56279;47.902;12.308;2023-03-19T10:17:28;95421.63;;;13.72;61.54
69171;BME280;56279;47.902;12.308;2023-03-19T10:20:24;95420.75;;;13.77;61.77
69171;BME280;56279;47.902;12.308;2023-03-19T10:22:03;95425.47;;;13.80;61.54
69171;BME280;56279;47.902;12.308;2023-03-19T10:26:25;95419.66;;;13.92;60.93
69171;BME280;56279;47.902;12.308;2023-03-19T10:28:28;95420.38;;;13.97;61.25
69171;BME280;56279;47.902;12.308;2023-03-19T10:30:32;95420.56;;;14.01;60.90
69171;BME280;56279;47.902;12.308;2023-03-19T10:32:45;95421.34;;;14.01;60.63
69171;BME280;56279;47.902;12.308;2023-03-19T10:34:50;95418.22;;;13.99;60.57
69171;BME280;56279;47.902;12.308;2023-03-19T10:37:26;95416.44;;;13.95;60.70
69171;BME280;56279;47.902;12.308;2023-03-19T10:39:29;95420.06;;;13.99;60.59
69171;BME280;56279;47.902;12.308;2023-03-19T10:43:42;95415.06;;;14.11;60.34
69171;BME280;56279;47.902;12.308;2023-03-19T10:45:45;95413.78;;;14.08;59.97
69171;BME280;56279;47.902;12.308;2023-03-19T10:47:51;95414.19;;;14.02;60.25
69171;BME280;56279;47.902;12.308;2023-03-19T10:49:55;95411.53;;;14.02;60.34
69171;BME280;56279;47.902;12.308;2023-03-19T10:51:56;95410.31;;;14.08;60.19
69171;BME280;56279;47.902;12.308;2023-03-19T10:54:00;95411.81;;;14.14;60.07
69171;BME280;56279;47.902;12.308;2023-03-19T10:56:23;95417.03;;;14.19;59.73
69171;BME280;56279;47.902;12.308;2023-03-19T10:58:26;95409.72;;;14.24;59.46
69171;BME280;56279;47.902;12.308;2023-03-19T11:00:31;95413.09;;;14.30;59.40
69171;BME280;56279;47.902;12.308;2023-03-19T11:02:34;95407.47;;;14.31;59.49
69171;BME280;56279;47.902;12.308;2023-03-19T11:04:36;95413.91;;;14.30;58.89
69171;BME280;56279;47.902;12.308;2023-03-19T11:06:38;95405.69;;;14.27;59.01
69171;BME280;56279;47.902;12.308;2023-03-19T11:08:39;95414.44;;;14.27;58.81
69171;BME280;56279;47.902;12.308;2023-03-19T11:10:46;95405.22;;;14.25;58.60
69171;BME280;56279;47.902;12.308;2023-03-19T11:12:59;95403.44;;;14.20;58.76
69171;BME280;56279;47.902;12.308;2023-03-19T11:15:20;95411.41;;;14.20;59.14
69171;BME280;56279;47.902;12.308;2023-03-19T11:17:26;95404.03;;;14.17;58.87
69171;BME280;56279;47.902;12.308;2023-03-19T11:19:31;95411.03;;;14.13;58.98
69171;BME280;56279;47.902;12.308;2023-03-19T11:21:34;95405.13;;;14.16;58.89
69171;BME280;56279;47.902;12.308;2023-03-19T11:23:39;95392.63;;;14.17;58.23
69171;BME280;56279;47.902;12.308;2023-03-19T11:25:52;95400.78;;;14.20;58.41